Time;durP1;ratioP1;P1;durP2;ratioP2;P2;SDS_P1;SDS_P2;PMS_P1;PMS_P2;Temp;Humidity;BMP_temperature;BMP_pressure;BME280_temperature;BME280_humidity;BME280_pressure;Samples;Min_cycle;Max_cycle;Signal;HPM_P1;HPM_P2
2022/07/24 06:30:21;;;;;;;3.58;0.80;;;;;;;-145.06;100.00;60892.56;5995847;23;20031;-89
2022/07/24 06:33:01;;;;;;;1.63;1.00;;;;;;;-145.06;100.00;60892.56;5974223;23;20341;-88
2022/07/24 06:35:39;;;;;;;1.27;0.90;;;;;;;-145.06;100.00;60892.56;5967433;23;20012;-90
2022/07/24 06:38:18;;;;;;;1.20;0.85;;;;;;;-145.06;100.00;60892.56;5945508;23;20001;-88
2022/07/24 06:40:57;;;;;;;0.97;0.80;;;;;;;-145.06;100.00;60892.56;5946422;23;20013;-90
2022/07/24 06:43:36;;;;;;;0.90;0.88;;;;;;;-145.06;100.00;60892.56;5944993;23;20319;-88
2022/07/24 06:46:16;;;;;;;2.60;0.80;;;;;;;-145.06;100.00;60892.56;5967314;23;20009;-89
2022/07/24 06:48:55;;;;;;;1.00;0.77;;;;;;;-145.06;100.00;60892.56;5946668;23;20001;-89
2022/07/24 06:51:43;;;;;;;1.50;1.00;;;;;;;-145.06;100.00;60892.56;5946464;23;20005;-89
2022/07/24 06:54:22;;;;;;;1.35;1.15;;;;;;;-145.06;100.00;60892.56;5965441;23;20436;-89
2022/07/24 06:57:01;;;;;;;1.33;1.15;;;;;;;-145.06;100.00;60892.56;5944985;23;20013;-90
2022/07/24 06:59:40;;;;;;;1.35;1.00;;;;;;;-145.06;100.00;60892.56;5946265;23;20005;-89
2022/07/24 07:02:20;;;;;;;1.13;1.02;;;;;;;-145.06;100.00;60892.56;5945408;23;20013;-89
2022/07/24 07:05:00;;;;;;;0.98;0.80;;;;;;;-145.06;100.00;60892.56;5946258;23;20459;-89
2022/07/24 07:07:39;;;;;;;1.55;0.95;;;;;;;-145.06;100.00;60892.56;5946944;23;20005;-89
2022/07/24 07:10:19;;;;;;;3.15;1.17;;;;;;;-145.06;100.00;60892.56;5947311;23;20028;-89
2022/07/24 07:12:57;;;;;;;1.25;0.93;;;;;;;-145.06;100.00;60892.56;5947411;23;20005;-88
2022/07/24 07:15:36;;;;;;;3.53;1.00;;;;;;;-145.06;100.00;60892.56;5947652;23;20012;-90
2022/07/24 07:18:16;;;;;;;1.42;1.17;;;;;;;-145.06;100.00;60892.56;5968150;23;20005;-89
2022/07/24 07:20:57;;;;;;;1.50;0.90;;;;;;;-145.06;100.00;60892.56;5947166;23;20107;-89
2022/07/24 07:46:41;;;;;;;1.08;0.98;;;;;;;-145.06;100.00;60892.56;5987897;23;20040;-92
2022/07/24 07:49:35;;;;;;;;;;;;;;;-145.06;100.00;60892.56;5979794;23;20000;-89
2022/07/24 08:02:56;;;;;;;1.70;0.93;;;;;;;-145.06;100.00;60892.56;5982383;23;20072;-91
2022/07/24 08:23:16;;;;;;;;;;;;;;;;;;;;;
2022/07/24 09:09:39;;;;;;;1.30;1.20;;;;;;;-145.06;100.00;60892.56;5985027;23;20258;-91
2022/07/24 10:59:41;;;;;;;1.13;1.00;;;;;;;-145.06;100.00;60892.56;6010174;23;20004;-89
2022/07/24 11:02:28;;;;;;;1.15;1.05;;;;;;;-145.06;100.00;60892.56;5975921;23;20001;-91
2022/07/24 11:06:00;;;;;;;1.30;1.10;;;;;;;-145.06;100.00;60892.56;5969381;23;20040;-90
2022/07/24 11:08:39;;;;;;;1.08;0.82;;;;;;;-145.06;100.00;60892.56;5947708;23;20005;-91
2022/07/24 11:11:42;;;;;;;1.17;0.85;;;;;;;-145.06;100.00;60892.56;5950937;23;20005;-90
2022/07/24 11:14:40;;;;;;;1.00;0.88;;;;;;;-145.06;100.00;60892.56;5948052;23;20005;-89
2022/07/24 11:17:38;;;;;;;1.20;0.87;;;;;;;-145.06;100.00;60892.56;5947990;23;20084;-91
2022/07/24 11:20:20;;;;;;;0.90;0.90;;;;;;;-145.06;100.00;60892.56;5948878;23;20001;-91
2022/07/24 11:22:59;;;;;;;0.80;0.65;;;;;;;-145.06;100.00;60892.56;5947056;23;20013;-91
2022/07/24 11:25:38;;;;;;;0.98;0.90;;;;;;;-145.06;100.00;60892.56;5945620;23;20013;-89
2022/07/24 11:28:17;;;;;;;1.02;0.93;;;;;;;-145.06;100.00;60892.56;5946522;23;20037;-91
2022/07/24 11:30:56;;;;;;;1.15;0.82;;;;;;;-145.06;100.00;60892.56;5946603;23;20008;-90
2022/07/24 11:33:57;;;;;;;0.75;0.70;;;;;;;-145.06;100.00;60892.56;5970703;23;20061;-91
2022/07/24 11:36:47;;;;;;;0.70;0.68;;;;;;;-145.06;100.00;60892.56;6000820;23;20009;-90
2022/07/24 11:39:32;;;;;;;1.10;1.00;;;;;;;-145.06;100.00;60892.56;5947193;23;20009;-89
2022/07/24 11:42:19;;;;;;;1.10;1.00;;;;;;;-145.06;100.00;60892.56;5946440;23;20001;-92
2022/07/24 11:45:02;;;;;;;1.40;1.13;;;;;;;-145.06;100.00;60892.56;5972898;23;20005;-91
2022/07/24 11:47:41;;;;;;;1.00;0.90;;;;;;;-145.06;100.00;60892.56;5949583;23;20083;-92
2022/07/24 11:50:27;;;;;;;1.35;0.95;;;;;;;-145.06;100.00;60892.56;5949335;23;20005;-91
2022/07/24 11:53:33;;;;;;;1.05;0.82;;;;;;;-145.06;100.00;60892.56;5950420;23;20301;-92
2022/07/24 12:18:03;;;;;;;0.80;0.80;;;;;;;-145.06;100.00;60892.56;5999921;23;20035;-90
2022/07/24 12:29:52;;;;;;;0.80;0.75;;;;;;;-145.06;100.00;60892.56;5983811;23;20008;-92
2022/07/24 12:33:29;;;;;;;0.73;0.63;;;;;;;-145.06;100.00;60892.56;5952925;23;20373;-92
2022/07/24 12:36:11;;;;;;;1.02;0.93;;;;;;;-145.06;100.00;60892.56;5963061;23;20001;-91
2022/07/24 12:38:55;;;;;;;0.88;0.75;;;;;;;-145.06;100.00;60892.56;5943084;23;20002;-91
2022/07/24 12:41:48;;;;;;;0.65;0.63;;;;;;;-145.06;100.00;60892.56;5942438;23;20005;-90
2022/07/24 12:44:42;;;;;;;0.80;0.80;;;;;;;-145.06;100.00;60892.56;5941220;23;20010;-92
2022/07/24 12:47:21;;;;;;;0.80;0.77;;;;;;;-145.06;100.00;60892.56;5941970;23;20006;-91
2022/07/24 12:50:12;;;;;;;0.80;0.80;;;;;;;-145.06;100.00;60892.56;5942028;23;20002;-92
2022/07/24 12:53:06;;;;;;;1.02;0.70;;;;;;;-145.06;100.00;60892.56;5943330;23;20648;-92
2022/07/24 12:56:03;;;;;;;0.55;0.50;;;;;;;-145.06;100.00;60892.56;5942679;23;20451;-93
2022/07/24 12:58:52;;;;;;;0.70;0.60;;;;;;;-145.06;100.00;60892.56;5953397;23;20005;-91
2022/07/24 13:01:51;;;;;;;0.70;0.70;;;;;;;-145.06;100.00;60892.56;5942525;23;20006;-92
2022/07/24 13:05:07;;;;;;;0.95;0.80;;;;;;;-145.06;100.00;60892.56;5952859;23;20001;-92
2022/07/24 13:07:57;;;;;;;1.10;1.00;;;;;;;-145.06;100.00;60892.56;5908625;23;20010;-91
2022/07/24 13:10:39;;;;;;;1.23;1.00;;;;;;;-145.06;100.00;60892.56;5943658;23;20440;-92
2022/07/24 13:13:21;;;;;;;1.23;1.10;;;;;;;-145.06;100.00;60892.56;5942884;23;20005;-92
2022/07/24 13:16:27;;;;;;;1.35;1.00;;;;;;;-145.06;100.00;60892.56;5943593;23;20002;-92
2022/07/24 13:22:10;;;;;;;1.20;1.00;;;;;;;-145.06;100.00;60892.56;5952072;23;20005;-91
2022/07/24 13:24:49;;;;;;;1.40;1.30;;;;;;;-145.06;100.00;60892.56;5941308;23;20006;-91
2022/07/24 13:27:29;;;;;;;1.20;1.10;;;;;;;-145.06;100.00;60892.56;5941222;23;20009;-91
2022/07/24 13:30:09;;;;;;;1.15;0.90;;;;;;;-145.06;100.00;60892.56;5933396;23;20013;-92
2022/07/24 13:32:48;;;;;;;2.00;1.50;;;;;;;-145.06;100.00;60892.56;5934742;23;20350;-91
2022/07/24 13:35:27;;;;;;;1.50;1.40;;;;;;;-145.06;100.00;60892.56;5934968;23;20424;-91
2022/07/24 13:38:06;;;;;;;1.30;1.10;;;;;;;-145.06;100.00;60892.56;5913111;23;20330;-92
2022/07/24 13:40:45;;;;;;;1.10;0.90;;;;;;;-145.06;100.00;60892.56;5912632;23;20523;-91
2022/07/24 13:43:24;;;;;;;1.23;1.00;;;;;;;-145.06;100.00;60892.56;5912729;23;20425;-91
2022/07/24 13:46:04;;;;;;;1.20;1.10;;;;;;;-145.06;100.00;60892.56;5933648;23;20005;-91
2022/07/24 13:48:44;;;;;;;1.35;1.10;;;;;;;-145.06;100.00;60892.56;5912980;23;20006;-91
2022/07/24 13:51:23;;;;;;;1.20;0.93;;;;;;;-145.06;100.00;60892.56;5932668;23;20010;-90
2022/07/24 13:54:07;;;;;;;1.25;1.15;;;;;;;-145.06;100.00;60892.56;5936523;23;20523;-90
2022/07/24 13:56:48;;;;;;;0.90;0.90;;;;;;;-145.06;100.00;60892.56;5915989;23;20010;-90
2022/07/24 13:59:29;;;;;;;2.65;1.00;;;;;;;-145.06;100.00;60892.56;5916121;23;20009;-90
2022/07/24 14:02:15;;;;;;;1.10;0.93;;;;;;;-145.06;100.00;60892.56;5915661;23;20005;-91
2022/07/24 14:04:54;;;;;;;1.25;1.10;;;;;;;-145.06;100.00;60892.56;5914220;23;20002;-90
2022/07/24 14:07:33;;;;;;;1.23;0.98;;;;;;;-145.06;100.00;60892.56;5914311;23;20037;-90
2022/07/24 14:10:12;;;;;;;;;;;;;;;-145.06;100.00;60892.56;5915108;23;20441;-92
2022/07/24 14:12:51;;;;;;;1.48;0.93;;;;;;;-145.06;100.00;60892.56;5912658;23;19905;-90
2022/07/24 14:15:30;;;;;;;;;;;;;;;-145.06;100.00;60892.56;5922888;23;20006;-90
2022/07/24 14:25:24;;;;;;;1.10;0.90;;;;;;;-145.06;100.00;60892.56;5938168;23;20044;-92
2022/07/24 14:32:29;;;;;;;;;;;;;;;;;;;;;
2022/07/24 14:35:42;;;;;;;;;;;;;;;;;;;;;
2022/07/24 14:43:01;;;;;;;;;;;;;;;;;;;;;
2022/07/24 16:11:11;;;;;;;1.25;0.90;;;;;;;-145.06;100.00;60892.56;5986164;23;20099;-92
2022/07/24 16:13:59;;;;;;;1.15;1.00;;;;;;;-145.06;100.00;60892.56;5979386;23;20004;-93
2022/07/24 16:17:12;;;;;;;1.15;1.05;;;;;;;-145.06;100.00;60892.56;5977851;23;20083;-91
2022/07/24 16:20:39;;;;;;;0.82;0.80;;;;;;;-145.06;100.00;60892.56;5978780;23;20012;-91
2022/07/24 16:29:39;;;;;;;0.70;0.65;;;;;;;-145.06;100.00;60892.56;5998181;23;20106;-91
2022/07/24 16:36:54;;;;;;;0.85;0.80;;;;;;;-145.06;100.00;60892.56;5921875;23;19905;-91
2022/07/24 16:43:05;;;;;;;1.23;0.77;;;;;;;-145.06;100.00;60892.56;5800421;23;20063;-92
